Time;durP1;ratioP1;P1;durP2;ratioP2;P2;SDS_P1;SDS_P2;PMS_P1;PMS_P2;Temp;Humidity;BMP_temperature;BMP_pressure;BME280_temperature;BME280_humidity;BME280_pressure;Samples;Min_cycle;Max_cycle;Signal;HPM_P1;HPM_P2
2022/09/04 00:00:10;;;;;;;;;;;;;;;19.89;57.38;100627.13;5398242;32;34498;-77
2022/09/04 00:03:16;;;;;;;;;;;;;;;19.82;58.49;100641.03;5373591;32;35122;-78
2022/09/04 00:06:19;;;;;;;;;;;;;;;20.33;57.39;100643.44;5402817;32;35397;-76
2022/09/04 00:09:31;;;;;;;;;;;;;;;19.67;59.39;100651.84;5399753;32;34730;-77
2022/09/04 00:12:34;;;;;;;;;;;;;;;19.79;59.56;100642.12;5413557;32;46556;-77
2022/09/04 00:15:38;;;;;;;;;;;;;;;20.00;59.23;100642.34;5407282;32;34944;-75
2022/09/04 00:18:41;;;;;;;;;;;;;;;19.85;59.52;100644.34;5390068;32;35083;-78
2022/09/04 00:21:46;;;;;;;;;;;;;;;19.35;61.40;100651.47;5421831;32;35651;-77
2022/09/04 00:24:50;;;;;;;;;;;;;;;19.57;61.11;100655.25;5396427;32;34650;-77
2022/09/04 00:27:53;;;;;;;;;;;;;;;19.39;62.10;100660.97;5407340;32;35005;-79
2022/09/04 00:31:03;;;;;;;;;;;;;;;19.20;63.00;100663.25;5407552;32;35097;-77
2022/09/04 00:34:34;;;;;;;;;;;;;;;19.00;63.38;100674.41;5396100;32;43470;-76
2022/09/04 00:37:57;;;;;;;;;;;;;;;19.28;62.41;100676.88;5390723;32;45286;-75
2022/09/04 00:41:18;;;;;;;;;;;;;;;18.38;64.51;100675.06;5378315;32;44501;-76
2022/09/04 00:44:30;;;;;;;;;;;;;;;18.39;64.32;100677.63;5409597;32;37033;-76
2022/09/04 00:47:37;;;;;;;;;;;;;;;19.23;61.64;100681.66;5402505;32;46591;-77
2022/09/04 00:50:45;;;;;;;;;;;;;;;18.67;62.91;100687.28;5391377;32;35105;-75
2022/09/04 00:53:50;;;;;;;;;;;;;;;18.66;62.40;100684.69;5402995;32;35065;-78
2022/09/04 00:56:52;;;;;;;;;;;;;;;19.29;59.31;100675.91;5392663;32;34972;-77
2022/09/04 00:59:54;;;;;;;;;;;;;;;19.22;58.80;100679.97;5411508;32;35878;-77
2022/09/04 01:03:02;;;;;;;;;;;;;;;19.34;58.49;100679.09;5377902;32;35564;-77
2022/09/04 01:06:10;;;;;;;;;;;;;;;18.66;61.06;100679.38;5380461;32;45382;-76
2022/09/04 01:09:31;;;;;;;;;;;;;;;19.12;59.25;100682.41;5413323;32;35379;-77
2022/09/04 01:12:51;;;;;;;;;;;;;;;18.58;61.38;100681.72;5378678;32;44628;-75
2022/09/04 01:15:58;;;;;;;;;;;;;;;19.26;59.39;100684.13;5392446;32;34997;-76
2022/09/04 01:19:01;;;;;;;;;;;;;;;19.41;58.67;100683.03;5386402;32;44536;-75
2022/09/04 01:22:21;;;;;;;;;;;;;;;18.63;61.38;100680.44;5394893;32;34996;-76
2022/09/04 01:25:41;;;;;;;;;;;;;;;18.20;63.40;100685.13;5411598;32;35036;-78
2022/09/04 01:28:49;;;;;;;;;;;;;;;18.37;62.64;100692.84;5393696;32;36237;-77
2022/09/04 01:31:54;;;;;;;;;;;;;;;18.73;61.79;100686.03;5410797;32;34893;-77
2022/09/04 01:35:00;;;;;;;;;;;;;;;19.35;59.12;100677.28;5390026;32;34843;-78
2022/09/04 01:38:12;;;;;;;;;;;;;;;19.26;59.73;100684.13;5395622;32;44683;-74
2022/09/04 01:41:16;;;;;;;;;;;;;;;19.44;60.07;100706.78;5410986;32;35091;-75
2022/09/04 01:44:18;;;;;;;;;;;;;;;19.15;60.82;100702.66;5394147;32;35450;-76
2022/09/04 01:47:28;;;;;;;;;;;;;;;19.66;58.85;100702.63;5410076;32;34736;-77
2022/09/04 01:50:31;;;;;;;;;;;;;;;19.17;61.07;100711.41;5403510;32;44627;-77
2022/09/04 01:53:33;;;;;;;;;;;;;;;20.11;57.65;100710.94;5396306;32;35442;-76
2022/09/04 01:56:56;;;;;;;;;;;;;;;18.97;61.07;100715.44;5395518;32;35439;-75
2022/09/04 02:00:08;;;;;;;;;;;;;;;19.32;60.44;100718.34;5388443;32;45789;-77
2022/09/04 02:03:16;;;;;;;;;;;;;;;19.69;58.53;100719.25;5372267;32;35396;-75
2022/09/04 02:06:31;;;;;;;;;;;;;;;18.71;62.03;100708.41;5379339;32;34999;-76
2022/09/04 02:09:36;;;;;;;;;;;;;;;18.50;62.97;100710.66;5407100;32;46059;-76
2022/09/04 02:12:49;;;;;;;;;;;;;;;18.54;62.83;100717.47;5401403;32;35447;-76
2022/09/04 02:15:52;;;;;;;;;;;;;;;19.51;59.21;100714.34;5401791;32;35499;-75
2022/09/04 02:19:02;;;;;;;;;;;;;;;18.54;62.04;100706.81;5407545;32;34788;-76
2022/09/04 02:22:14;;;;;;;;;;;;;;;18.27;63.53;100720.16;5386187;32;44345;-77
2022/09/04 02:25:21;;;;;;;;;;;;;;;18.60;62.08;100709.06;5417671;32;35558;-76
2022/09/04 02:28:32;;;;;;;;;;;;;;;18.93;60.80;100717.50;5390889;32;35430;-77
2022/09/04 02:31:53;;;;;;;;;;;;;;;19.63;58.46;100713.50;5380263;32;44525;-76
2022/09/04 02:35:03;;;;;;;;;;;;;;;19.43;58.76;100707.75;5410553;32;34770;-76
2022/09/04 02:38:11;;;;;;;;;;;;;;;19.10;60.14;100715.47;5392291;32;43067;-77
2022/09/04 02:41:19;;;;;;;;;;;;;;;18.47;62.39;100716.19;5416957;32;35045;-75
2022/09/04 02:44:40;;;;;;;;;;;;;;;18.51;62.89;100721.19;5400334;32;35671;-76
2022/09/04 02:47:41;;;;;;;;;;;;;;;18.96;60.59;100728.87;5383614;32;33844;-76
2022/09/04 02:51:12;;;;;;;;;;;;;;;18.33;63.13;100711.78;5406447;32;35782;-76
2022/09/04 02:54:32;;;;;;;;;;;;;;;19.13;60.04;100712.59;5377963;32;35374;-76
2022/09/04 02:57:38;;;;;;;;;;;;;;;19.09;59.90;100713.75;5390997;32;46410;-77
2022/09/04 03:00:42;;;;;;;;;;;;;;;18.85;61.10;100713.62;5420243;32;36696;-77
2022/09/04 03:03:46;;;;;;;;;;;;;;;17.96;64.75;100730.12;5361250;32;36073;-76
2022/09/04 03:06:50;;;;;;;;;;;;;;;19.24;59.91;100722.47;5407890;32;35111;-77
2022/09/04 03:09:59;;;;;;;;;;;;;;;18.96;60.53;100720.88;5401881;32;35108;-77
2022/09/04 03:13:01;;;;;;;;;;;;;;;18.45;62.58;100723.41;5398989;32;46050;-77
2022/09/04 03:16:03;;;;;;;;;;;;;;;18.86;61.05;100716.19;5408285;32;34962;-78
2022/09/04 03:19:37;;;;;;;;;;;;;;;19.04;60.12;100710.56;5395067;32;35989;-76
2022/09/04 03:22:58;;;;;;;;;;;;;;;19.69;57.63;100710.41;5392318;32;35554;-75
2022/09/04 03:26:19;;;;;;;;;;;;;;;18.77;61.17;100714.16;5395836;32;44608;-76
2022/09/04 03:29:25;;;;;;;;;;;;;;;18.54;61.92;100713.00;5397549;32;35515;-77
2022/09/04 03:32:45;;;;;;;;;;;;;;;18.15;63.54;100724.47;5412122;32;35118;-76
2022/09/04 03:35:54;;;;;;;;;;;;;;;18.67;62.12;100718.37;5396425;32;35320;-75
2022/09/04 03:39:03;;;;;;;;;;;;;;;18.60;61.91;100733.03;5405429;32;34606;-75
2022/09/04 03:42:18;;;;;;;;;;;;;;;19.24;60.04;100731.31;5387668;32;46843;-75
2022/09/04 03:45:39;;;;;;;;;;;;;;;19.81;57.58;100738.84;5400517;32;35183;-78
2022/09/04 03:48:50;;;;;;;;;;;;;;;19.86;57.39;100744.72;5412226;32;35238;-77
2022/09/04 03:52:11;;;;;;;;;;;;;;;19.16;59.17;100752.34;5389799;32;34777;-77
2022/09/04 03:55:32;;;;;;;;;;;;;;;19.13;59.73;100748.09;5391333;32;34869;-77
2022/09/04 03:58:42;;;;;;;;;;;;;;;17.86;65.00;100763.59;5398884;32;43572;-77
2022/09/04 04:01:54;;;;;;;;;;;;;;;17.89;65.14;100762.53;5390183;32;35460;-77
2022/09/04 04:05:16;;;;;;;;;;;;;;;18.12;64.07;100762.78;5384885;32;35072;-77
2022/09/04 04:08:41;;;;;;;;;;;;;;;18.10;64.18;100766.50;5354660;32;35060;-76
2022/09/04 04:11:44;;;;;;;;;;;;;;;18.72;62.06;100766.84;5375009;32;34755;-76
2022/09/04 04:14:50;;;;;;;;;;;;;;;18.45;63.41;100763.34;5412481;32;35462;-75
2022/09/04 04:17:58;;;;;;;;;;;;;;;17.65;66.80;100771.09;5391421;32;36940;-77
2022/09/04 04:21:05;;;;;;;;;;;;;;;17.94;65.76;100769.28;5394328;32;44425;-79
2022/09/04 04:24:39;;;;;;;;;;;;;;;17.99;66.67;100779.63;5387570;32;34865;-75
2022/09/04 04:28:18;;;;;;;;;;;;;;;18.39;64.62;100788.53;5360525;32;34513;-76
2022/09/04 04:31:39;;;;;;;;;;;;;;;18.30;64.87;100800.66;5393476;32;35050;-77
2022/09/04 04:35:02;;;;;;;;;;;;;;;18.14;65.48;100807.91;5395866;32;35517;-76
2022/09/04 04:38:07;;;;;;;;;;;;;;;18.38;63.63;100811.62;5400076;32;47204;-76
2022/09/04 04:41:15;;;;;;;;;;;;;;;17.42;67.60;100814.16;5406703;32;35870;-76
2022/09/04 04:44:16;;;;;;;;;;;;;;;17.80;66.82;100820.66;5394810;32;35487;-78
2022/09/04 04:47:39;;;;;;;;;;;;;;;18.00;66.14;100830.06;5401989;32;34761;-78
2022/09/04 04:51:02;;;;;;;;;;;;;;;18.16;65.44;100834.38;5372904;32;34117;-76
2022/09/04 04:54:23;;;;;;;;;;;;;;;18.28;64.78;100833.59;5375732;32;44786;-76
2022/09/04 04:57:45;;;;;;;;;;;;;;;18.03;64.74;100829.87;5408485;32;35375;-76
2022/09/04 05:01:05;;;;;;;;;;;;;;;18.37;63.91;100820.59;5405681;32;35494;-76
2022/09/04 05:04:10;;;;;;;;;;;;;;;18.33;64.39;100834.19;5382472;32;44807;-77
2022/09/04 05:07:16;;;;;;;;;;;;;;;18.14;64.28;100837.16;5397195;32;35971;-76
2022/09/04 05:10:27;;;;;;;;;;;;;;;18.37;62.32;100841.03;5393629;32;34291;-76
2022/09/04 05:13:29;;;;;;;;;;;;;;;18.32;61.82;100837.78;5406389;32;43122;-77
2022/09/04 05:16:46;;;;;;;;;;;;;;;18.43;61.46;100842.44;5389991;32;35143;-77
2022/09/04 05:19:52;;;;;;;;;;;;;;;18.81;60.25;100851.47;5411534;32;35963;-78
2022/09/04 05:23:03;;;;;;;;;;;;;;;17.99;63.12;100854.94;5390898;32;35379;-76
2022/09/04 05:26:09;;;;;;;;;;;;;;;17.84;64.40;100846.13;5394756;32;44802;-79
2022/09/04 05:29:11;;;;;;;;;;;;;;;18.16;63.38;100840.56;5402152;32;34971;-75
2022/09/04 05:32:16;;;;;;;;;;;;;;;18.59;61.53;100843.13;5386236;32;37062;-78
2022/09/04 05:35:25;;;;;;;;;;;;;;;18.79;60.66;100852.50;5410063;32;34568;-77
2022/09/04 05:38:59;;;;;;;;;;;;;;;18.85;60.40;100858.28;5393679;32;44535;-77
2022/09/04 05:42:07;;;;;;;;;;;;;;;18.79;60.69;100858.69;5377344;32;45111;-76
2022/09/04 05:45:11;;;;;;;;;;;;;;;19.61;57.96;100854.09;5410110;32;34725;-75
2022/09/04 05:48:19;;;;;;;;;;;;;;;19.18;57.49;100856.97;5394824;32;34655;-77
2022/09/04 05:51:35;;;;;;;;;;;;;;;19.53;55.95;100861.75;5405359;32;36500;-77
2022/09/04 05:54:49;;;;;;;;;;;;;;;19.03;57.39;100871.34;5388600;32;37820;-77
2022/09/04 05:57:55;;;;;;;;;;;;;;;19.07;57.53;100867.53;5388992;32;35061;-76
2022/09/04 06:00:59;;;;;;;;;;;;;;;19.54;56.29;100876.78;5402116;32;37673;-76
2022/09/04 06:04:01;;;;;;;;;;;;;;;19.06;57.67;100881.78;5366413;32;44344;-76
2022/09/04 06:07:09;;;;;;;;;;;;;;;19.37;58.00;100876.09;5399817;32;34984;-77
2022/09/04 06:10:20;;;;;;;;;;;;;;;19.64;57.08;100869.84;5397439;32;35441;-75
2022/09/04 06:13:28;;;;;;;;;;;;;;;19.47;58.25;100873.66;5404288;32;35892;-76
2022/09/04 06:16:37;;;;;;;;;;;;;;;18.86;60.45;100869.78;5386220;32;45515;-76
2022/09/04 06:20:05;;;;;;;;;;;;;;;18.97;60.85;100867.28;5395274;32;35361;-77
2022/09/04 06:23:16;;;;;;;;;;;;;;;18.46;63.01;100869.69;5376792;32;44924;-77
2022/09/04 06:26:30;;;;;;;;;;;;;;;18.68;62.54;100874.53;5384224;32;35122;-76
2022/09/04 06:29:58;;;;;;;;;;;;;;;18.57;63.28;100869.00;5395585;32;44992;-76
2022/09/04 06:33:06;;;;;;;;;;;;;;;18.73;62.73;100872.41;5408827;32;46986;-77
2022/09/04 06:36:14;;;;;;;;;;;;;;;19.04;60.52;100873.91;5392167;32;34910;-79
2022/09/04 06:39:26;;;;;;;;;;;;;;;18.61;59.88;100884.69;5409875;32;34948;-77
2022/09/04 06:42:38;;;;;;;;;;;;;;;18.62;59.61;100872.22;5395518;32;44774;-78
2022/09/04 06:45:59;;;;;;;;;;;;;;;18.43;60.38;100877.03;5405818;32;34755;-77
2022/09/04 06:49:21;;;;;;;;;;;;;;;19.27;57.24;100885.69;5410366;32;44550;-76
2022/09/04 06:52:23;;;;;;;;;;;;;;;18.68;59.37;100890.50;5391521;32;35222;-76
2022/09/04 06:55:44;;;;;;;;;;;;;;;18.96;58.88;100888.69;5405767;32;35173;-76
2022/09/04 06:59:10;;;;;;;;;;;;;;;19.23;57.70;100886.00;5384498;32;36194;-78
2022/09/04 07:02:31;;;;;;;;;;;;;;;18.77;59.74;100892.56;5365904;32;34733;-77
2022/09/04 07:05:42;;;;;;;;;;;;;;;19.11;58.61;100887.66;5413589;32;43357;-77
2022/09/04 07:09:16;;;;;;;;;;;;;;;18.86;59.34;100891.09;5399934;32;34730;-78
2022/09/04 07:12:22;;;;;;;;;;;;;;;19.24;58.09;100891.22;5365937;32;35288;-78
2022/09/04 07:15:36;;;;;;;;;;;;;;;19.93;55.39;100899.84;5402962;32;34118;-77
2022/09/04 07:18:46;;;;;;;;;;;;;;;18.90;58.34;100912.09;5376457;32;36909;-77
2022/09/04 07:22:05;;;;;;;;;;;;;;;19.03;58.94;100906.81;5407286;32;35405;-77
2022/09/04 07:25:07;;;;;;;;;;;;;;;19.08;58.56;100907.38;5397723;32;44557;-76
2022/09/04 07:28:15;;;;;;;;;;;;;;;19.17;58.41;100913.91;5391242;32;35446;-76
2022/09/04 07:31:19;;;;;;;;;;;;;;;18.99;59.13;100920.44;5408826;32;36010;-76
2022/09/04 07:34:24;;;;;;;;;;;;;;;19.48;57.43;100908.22;5395462;32;34721;-76
2022/09/04 07:37:26;;;;;;;;;;;;;;;19.35;58.50;100917.16;5412972;32;35034;-77
2022/09/04 07:40:49;;;;;;;;;;;;;;;20.15;55.42;100913.38;5393581;32;44431;-77
2022/09/04 07:43:58;;;;;;;;;;;;;;;19.16;58.68;100930.84;5395864;32;35691;-76
2022/09/04 07:47:16;;;;;;;;;;;;;;;18.68;60.45;100925.13;5414611;32;44818;-77
2022/09/04 07:50:20;;;;;;;;;;;;;;;19.32;57.93;100931.53;5373865;32;34781;-76
2022/09/04 07:53:23;;;;;;;;;;;;;;;18.87;59.20;100941.63;5417536;32;36642;-75
2022/09/04 07:56:37;;;;;;;;;;;;;;;18.76;60.15;100941.44;5389205;32;34434;-77
2022/09/04 07:59:45;;;;;;;;;;;;;;;19.15;58.52;100931.81;5395913;32;35109;-77
2022/09/04 08:02:47;;;;;;;;;;;;;;;18.89;59.33;100930.84;5378094;32;34810;-75
2022/09/04 08:06:12;;;;;;;;;;;;;;;19.48;57.53;100932.22;5375710;32;35537;-76
2022/09/04 08:09:27;;;;;;;;;;;;;;;19.46;57.70;100931.47;5416311;32;36518;-77
2022/09/04 08:12:45;;;;;;;;;;;;;;;20.13;55.33;100930.47;5383562;32;44797;-78
2022/09/04 08:16:02;;;;;;;;;;;;;;;20.88;53.12;100933.97;5376456;32;35186;-77
2022/09/04 08:19:11;;;;;;;;;;;;;;;20.39;54.24;100931.28;5408847;32;44571;-77
2022/09/04 08:22:21;;;;;;;;;;;;;;;19.92;55.44;100939.00;5405267;32;36014;-75
2022/09/04 08:25:48;;;;;;;;;;;;;;;21.24;51.45;100941.06;5419975;32;45063;-75
2022/09/04 08:28:55;;;;;;;;;;;;;;;20.94;51.77;100941.53;5401526;32;34315;-75
2022/09/04 08:32:07;;;;;;;;;;;;;;;20.73;53.32;100943.09;5399626;32;47080;-78
2022/09/04 08:35:28;;;;;;;;;;;;;;;20.34;53.72;100949.44;5412690;32;35149;-77
2022/09/04 08:38:50;;;;;;;;;;;;;;;19.99;54.88;100945.63;5397074;32;44933;-76
2022/09/04 08:42:04;;;;;;;;;;;;;;;20.74;52.76;100955.50;5398846;32;34547;-78
2022/09/04 08:45:25;;;;;;;;;;;;;;;21.10;51.90;100950.09;5408578;32;45416;-77
2022/09/04 08:48:40;;;;;;;;;;;;;;;21.73;49.81;100939.19;5394557;32;45063;-78
2022/09/04 08:51:51;;;;;;;;;;;;;;;21.01;52.01;100947.28;5403134;32;34887;-77
2022/09/04 08:55:12;;;;;;;;;;;;;;;21.23;51.69;100965.22;5387280;32;35302;-77
2022/09/04 08:58:33;;;;;;;;;;;;;;;21.00;51.91;100961.59;5390534;32;36359;-77
2022/09/04 09:01:53;;;;;;;;;;;;;;;21.24;51.31;100961.59;5397409;32;43407;-74
2022/09/04 09:05:04;;;;;;;;;;;;;;;20.52;53.98;100965.03;5368759;32;35763;-75
2022/09/04 09:08:22;;;;;;;;;;;;;;;21.87;50.76;100965.72;5403579;32;44919;-77
2022/09/04 09:11:26;;;;;;;;;;;;;;;20.71;53.67;100964.56;5386833;32;35141;-78
2022/09/04 09:14:47;;;;;;;;;;;;;;;21.51;51.57;100975.63;5397500;32;46920;-77
2022/09/04 09:18:02;;;;;;;;;;;;;;;22.75;47.81;100951.66;5397080;32;34911;-76
2022/09/04 09:21:04;;;;;;;;;;;;;;;21.80;51.05;100962.69;5387728;32;44514;-76
2022/09/04 09:24:21;;;;;;;;;;;;;;;21.82;51.26;100957.19;5402958;32;35478;-77
2022/09/04 09:27:29;;;;;;;;;;;;;;;23.02;47.50;100951.25;5406916;32;35672;-77
2022/09/04 09:30:49;;;;;;;;;;;;;;;23.58;45.97;100959.09;5394130;32;43504;-76
2022/09/04 09:34:01;;;;;;;;;;;;;;;21.88;50.68;100962.94;5401566;32;35415;-75
2022/09/04 09:37:21;;;;;;;;;;;;;;;22.22;49.78;100964.81;5383633;32;44550;-75
2022/09/04 09:40:26;;;;;;;;;;;;;;;21.26;51.88;100979.22;5394071;32;34878;-76
2022/09/04 09:43:48;;;;;;;;;;;;;;;22.20;49.86;100970.31;5408145;32;44569;-76
2022/09/04 09:46:50;;;;;;;;;;;;;;;21.63;51.59;100971.97;5393518;32;35789;-76
2022/09/04 09:49:52;;;;;;;;;;;;;;;22.92;47.84;100969.91;5408291;32;35042;-77
2022/09/04 09:53:09;;;;;;;;;;;;;;;22.44;49.37;100970.19;5386787;32;34551;-77
2022/09/04 09:56:30;;;;;;;;;;;;;;;22.32;50.26;100968.50;5381926;32;35140;-77
2022/09/04 09:59:48;;;;;;;;;;;;;;;22.28;50.01;100975.06;5407949;32;44814;-78
2022/09/04 10:03:05;;;;;;;;;;;;;;;21.59;51.72;100973.19;5366865;32;34607;-77
2022/09/04 10:06:11;;;;;;;;;;;;;;;21.60;51.91;100966.88;5394455;32;35253;-74
2022/09/04 10:09:22;;;;;;;;;;;;;;;22.22;50.61;100964.81;5385748;32;36469;-75
2022/09/04 10:12:43;;;;;;;;;;;;;;;23.31;47.37;100965.78;5382661;32;35428;-78
2022/09/04 10:15:47;;;;;;;;;;;;;;;23.24;47.91;100969.94;5409160;32;35386;-78
2022/09/04 10:18:58;;;;;;;;;;;;;;;22.63;49.11;100969.59;5392229;32;35666;-77
2022/09/04 10:22:18;;;;;;;;;;;;;;;22.70;49.11;100977.00;5404196;32;44490;-76
2022/09/04 10:25:36;;;;;;;;;;;;;;;22.49;49.82;100973.38;5400414;32;35057;-76
2022/09/04 10:28:40;;;;;;;;;;;;;;;21.69;52.20;100977.84;5394643;32;35155;-76
2022/09/04 10:31:46;;;;;;;;;;;;;;;21.62;52.50;100980.97;5411979;32;34683;-77
2022/09/04 10:34:54;;;;;;;;;;;;;;;22.24;50.96;100965.56;5405399;32;34560;-78
2022/09/04 10:37:58;;;;;;;;;;;;;;;22.32;50.82;100965.81;5411106;32;34859;-77
2022/09/04 10:41:09;;;;;;;;;;;;;;;22.35;51.07;100961.09;5395501;32;45367;-78
2022/09/04 10:44:11;;;;;;;;;;;;;;;22.63;50.50;100965.06;5394903;32;35798;-74
2022/09/04 10:47:31;;;;;;;;;;;;;;;21.51;53.86;100978.28;5422481;32;34796;-75
2022/09/04 10:50:35;;;;;;;;;;;;;;;21.89;52.45;100977.16;5392577;32;44527;-76
2022/09/04 10:53:55;;;;;;;;;;;;;;;22.26;51.31;100974.31;5403478;32;34955;-76
2022/09/04 10:57:02;;;;;;;;;;;;;;;21.71;52.94;100968.75;5393102;32;44322;-76
2022/09/04 11:00:06;;;;;;;;;;;;;;;22.03;52.10;100966.25;5394950;32;35048;-75
2022/09/04 11:03:27;;;;;;;;;;;;;;;21.47;54.07;100963.44;5388682;32;34967;-76
2022/09/04 11:06:35;;;;;;;;;;;;;;;22.20;52.41;100959.59;5381031;32;45342;-77
2022/09/04 11:09:37;;;;;;;;;;;;;;;22.72;51.40;100963.47;5418374;32;34646;-76
2022/09/04 11:13:05;;;;;;;;;;;;;;;22.30;52.27;100968.63;5381592;32;36464;-76
2022/09/04 11:16:13;;;;;;;;;;;;;;;21.80;54.06;100967.16;5376188;32;33373;-77
2022/09/04 11:19:34;;;;;;;;;;;;;;;21.76;53.95;100968.38;5411329;32;36106;-76
2022/09/04 11:22:42;;;;;;;;;;;;;;;21.89;53.93;100972.66;5386624;32;44574;-78
2022/09/04 11:26:04;;;;;;;;;;;;;;;22.09;52.89;100975.63;5411642;32;35504;-77
2022/09/04 11:29:12;;;;;;;;;;;;;;;22.66;51.78;100972.84;5396227;32;45218;-79
2022/09/04 11:32:33;;;;;;;;;;;;;;;22.62;51.61;100979.44;5382731;32;35449;-77
2022/09/04 11:35:43;;;;;;;;;;;;;;;21.65;54.37;100981.72;5411709;32;44452;-79
2022/09/04 11:39:03;;;;;;;;;;;;;;;22.17;53.18;100976.75;5393973;32;34826;-77
2022/09/04 11:42:25;;;;;;;;;;;;;;;23.38;49.50;100982.19;5401756;32;44539;-77
2022/09/04 11:45:42;;;;;;;;;;;;;;;22.15;52.60;100980.50;5422014;32;44717;-76
2022/09/04 11:48:44;;;;;;;;;;;;;;;23.24;49.54;100975.31;5385296;32;34696;-76
2022/09/04 11:52:01;;;;;;;;;;;;;;;23.32;49.39;100980.06;5404440;32;36106;-75
2022/09/04 11:55:05;;;;;;;;;;;;;;;22.28;52.22;100965.19;5388126;32;44864;-75
2022/09/04 11:58:13;;;;;;;;;;;;;;;22.85;50.94;100974.03;5393287;32;34239;-77
2022/09/04 12:01:31;;;;;;;;;;;;;;;23.40;49.18;100970.38;5400813;32;34923;-76
2022/09/04 12:04:38;;;;;;;;;;;;;;;23.85;47.97;100963.97;5368305;32;44611;-78
2022/09/04 12:08:01;;;;;;;;;;;;;;;22.72;50.45;100968.81;5410998;32;34816;-76
2022/09/04 12:11:14;;;;;;;;;;;;;;;23.10;49.04;100952.31;5401536;32;44945;-77
2022/09/04 12:14:22;;;;;;;;;;;;;;;23.39;48.66;100949.06;5400092;32;34694;-77
2022/09/04 12:17:34;;;;;;;;;;;;;;;24.10;46.55;100942.06;5398978;32;35607;-78
2022/09/04 12:20:36;;;;;;;;;;;;;;;24.05;46.08;100938.94;5374196;32;45357;-77
2022/09/04 12:23:56;;;;;;;;;;;;;;;23.91;46.25;100941.97;5410615;32;34938;-79
2022/09/04 12:27:17;;;;;;;;;;;;;;;23.58;47.55;100951.03;5396860;32;44567;-78
2022/09/04 12:30:22;;;;;;;;;;;;;;;24.93;44.11;100934.75;5399398;32;35552;-77
2022/09/04 12:33:24;;;;;;;;;;;;;;;24.47;45.47;100938.84;5412727;32;35083;-77
2022/09/04 12:36:29;;;;;;;;;;;;;;;25.75;42.38;100935.19;5380362;32;34621;-77
2022/09/04 12:39:49;;;;;;;;;;;;;;;25.27;41.72;100937.91;5410431;32;44502;-76
2022/09/04 12:43:15;;;;;;;;;;;;;;;24.94;42.69;100936.44;5393851;32;35086;-79
2022/09/04 12:46:34;;;;;;;;;;;;;;;24.72;43.28;100938.34;5389247;32;35474;-75
2022/09/04 12:49:36;;;;;;;;;;;;;;;24.69;42.96;100933.28;5410251;32;46192;-78
2022/09/04 12:52:39;;;;;;;;;;;;;;;25.33;41.40;100931.97;5398427;32;35868;-78
2022/09/04 12:55:50;;;;;;;;;;;;;;;25.33;40.99;100921.19;5406840;32;35018;-77
2022/09/04 12:58:55;;;;;;;;;;;;;;;26.17;39.43;100906.00;5392979;32;35939;-78
2022/09/04 13:02:16;;;;;;;;;;;;;;;24.91;41.52;100915.19;5390178;32;44154;-76
2022/09/04 13:05:31;;;;;;;;;;;;;;;25.35;40.98;100903.06;5401355;32;35044;-78
2022/09/04 13:08:42;;;;;;;;;;;;;;;26.20;39.37;100900.31;5385575;32;44749;-76
2022/09/04 13:12:03;;;;;;;;;;;;;;;26.25;38.52;100896.34;5405101;32;35535;-76
2022/09/04 13:15:18;;;;;;;;;;;;;;;25.32;40.71;100906.06;5412939;32;44635;-77
2022/09/04 13:18:20;;;;;;;;;;;;;;;24.97;40.71;100899.34;5390040;32;35083;-78
2022/09/04 13:21:22;;;;;;;;;;;;;;;25.72;39.03;100897.75;5396600;32;34875;-77
2022/09/04 13:24:34;;;;;;;;;;;;;;;24.87;40.65;100892.28;5394066;32;34848;-77
2022/09/04 13:27:52;;;;;;;;;;;;;;;25.97;38.56;100888.22;5419633;32;46091;-76
2022/09/04 13:31:14;;;;;;;;;;;;;;;24.90;39.96;100889.31;5400606;32;34968;-77
2022/09/04 13:34:19;;;;;;;;;;;;;;;24.31;41.67;100896.34;5405138;32;34730;-78
2022/09/04 13:37:25;;;;;;;;;;;;;;;24.28;42.48;100897.50;5410338;32;34374;-78
2022/09/04 13:40:34;;;;;;;;;;;;;;;24.79;41.37;100893.81;5403404;32;44281;-78
2022/09/04 13:43:42;;;;;;;;;;;;;;;25.34;40.56;100887.91;5408531;32;34541;-76
2022/09/04 13:46:46;;;;;;;;;;;;;;;24.93;41.44;100897.09;5394014;32;35950;-77
2022/09/04 13:49:56;;;;;;;;;;;;;;;24.96;41.61;100897.66;5393039;32;35169;-79
2022/09/04 13:53:09;;;;;;;;;;;;;;;24.69;41.73;100895.63;5404752;32;44322;-77
2022/09/04 13:56:13;;;;;;;;;;;;;;;25.31;40.14;100881.00;5400506;32;35738;-77
2022/09/04 13:59:16;;;;;;;;;;;;;;;25.75;39.05;100878.66;5410497;32;34875;-76
2022/09/04 14:02:23;;;;;;;;;;;;;;;26.36;36.62;100878.13;5365391;32;34919;-78
2022/09/04 14:05:25;;;;;;;;;;;;;;;25.71;38.26;100879.06;5379091;32;34955;-79
2022/09/04 14:08:29;;;;;;;;;;;;;;;26.64;36.54;100878.13;5392569;32;34859;-78
2022/09/04 14:11:31;;;;;;;;;;;;;;;26.15;37.55;100881.06;5375014;32;44675;-77
2022/09/04 14:14:39;;;;;;;;;;;;;;;25.89;38.47;100875.50;5411084;32;34738;-77
2022/09/04 14:17:41;;;;;;;;;;;;;;;26.53;38.06;100879.19;5387965;32;34282;-79
2022/09/04 14:20:49;;;;;;;;;;;;;;;27.01;37.42;100875.31;5403169;32;36064;-78
2022/09/04 14:23:59;;;;;;;;;;;;;;;26.03;39.89;100876.03;5403593;32;35345;-78
2022/09/04 14:27:20;;;;;;;;;;;;;;;25.65;40.93;100875.97;5384140;32;44609;-77
2022/09/04 14:30:22;;;;;;;;;;;;;;;26.01;40.00;100878.00;5402645;32;35113;-78
2022/09/04 14:33:38;;;;;;;;;;;;;;;24.71;42.84;100888.28;5387849;32;34921;-77
2022/09/04 14:36:45;;;;;;;;;;;;;;;26.07;39.89;100875.56;5406704;32;35016;-78
2022/09/04 14:39:48;;;;;;;;;;;;;;;25.03;41.69;100882.66;5399532;32;34806;-77
2022/09/04 14:43:01;;;;;;;;;;;;;;;25.77;40.74;100881.22;5393083;32;34701;-79
2022/09/04 14:46:13;;;;;;;;;;;;;;;26.17;39.35;100878.22;5374724;32;858539;-78
2022/09/04 14:49:16;;;;;;;;;;;;;;;25.44;40.21;100886.06;5388992;32;36243;-78
2022/09/04 14:52:23;;;;;;;;;;;;;;;24.52;42.33;100885.56;5396494;32;36088;-77
2022/09/04 14:55:26;;;;;;;;;;;;;;;25.21;40.72;100896.28;5380045;32;35449;-77
2022/09/04 14:58:30;;;;;;;;;;;;;;;25.13;40.69;100890.78;5385792;32;46141;-78
2022/09/04 15:01:32;;;;;;;;;;;;;;;24.82;40.92;100893.53;5407502;32;34332;-76
2022/09/04 15:04:50;;;;;;;;;;;;;;;25.44;39.85;100890.56;5369638;32;36360;-77
2022/09/04 15:07:53;;;;;;;;;;;;;;;24.08;42.33;100890.31;5411339;32;35857;-76
2022/09/04 15:10:59;;;;;;;;;;;;;;;25.21;41.66;100898.13;5400132;32;35087;-76
2022/09/04 15:14:03;;;;;;;;;;;;;;;24.71;43.64;100904.41;5401701;32;44740;-76
2022/09/04 15:17:07;;;;;;;;;;;;;;;24.08;45.26;100903.75;5407878;32;37300;-77
2022/09/04 15:20:28;;;;;;;;;;;;;;;24.36;45.25;100907.59;5394270;32;35966;-76
2022/09/04 15:23:32;;;;;;;;;;;;;;;23.16;47.71;100908.91;5414962;32;44736;-75
2022/09/04 15:26:50;;;;;;;;;;;;;;;24.42;44.54;100911.56;5392151;32;34696;-78
2022/09/04 15:29:52;;;;;;;;;;;;;;;24.10;44.78;100906.31;5403937;32;34963;-77
2022/09/04 15:33:02;;;;;;;;;;;;;;;24.10;44.56;100914.38;5403693;32;35445;-78
2022/09/04 15:36:19;;;;;;;;;;;;;;;24.41;43.49;100908.03;5403609;32;44542;-79
2022/09/04 15:39:32;;;;;;;;;;;;;;;24.07;44.04;100904.72;5403450;32;36893;-77
2022/09/04 15:42:37;;;;;;;;;;;;;;;23.72;44.72;100922.06;5392065;32;44609;-77
2022/09/04 15:45:51;;;;;;;;;;;;;;;24.48;43.11;100922.63;5416651;32;34952;-77
2022/09/04 15:49:05;;;;;;;;;;;;;;;24.14;43.67;100926.53;5415184;32;35906;-77
2022/09/04 15:52:20;;;;;;;;;;;;;;;23.93;43.84;100927.41;5400135;32;36028;-78
2022/09/04 15:55:26;;;;;;;;;;;;;;;24.08;43.83;100919.00;5396733;32;34073;-78
2022/09/04 15:58:31;;;;;;;;;;;;;;;24.31;43.78;100925.91;5388945;32;48640;-77
2022/09/04 16:01:39;;;;;;;;;;;;;;;23.82;44.98;100922.13;5403239;32;35625;-78
2022/09/04 16:04:48;;;;;;;;;;;;;;;24.21;43.63;100920.47;5389006;32;38171;-78
2022/09/04 16:08:02;;;;;;;;;;;;;;;24.08;44.06;100919.84;5397629;32;34438;-78
2022/09/04 16:11:10;;;;;;;;;;;;;;;24.03;44.53;100924.81;5391162;32;45379;-77
2022/09/04 16:14:44;;;;;;;;;;;;;;;24.20;44.54;100921.47;5393770;32;35374;-78
2022/09/04 16:17:48;;;;;;;;;;;;;;;24.55;43.92;100917.53;5379755;32;35402;-78
2022/09/04 16:20:57;;;;;;;;;;;;;;;24.10;44.96;100907.16;5415397;32;35303;-77